Guelph, Canada
Current Conditions -  °F | °C
As of 4:00 PM on Sunday 21 Dec 2014 (Local Time) from CYKF Reporting Station
Scattered Clouds Scattered Clouds  
Wind Chill: 28°   Ceiling: Unl
Heat Index: 28°   Visibility: 9mi
Dew Point: 19°   Wind: 3mph
Humidity: 69%   Direction: 180°S
Pressure: 30.25"   Gusts: NA
Location:  43.54°N, 80.25°W
Report Text: CYKF 212100Z AUTO 18003KT 9SM SCT025 M02/M07 A3025 RMK SLP259
Loading
Personal Weather Stations






























Interactive Weather Map New forecast layout! Learn more

10-Day Weather Forecast

Advertisements
Track Severe Weather on mobile